.
WxDataArchive / Data Records for 2008-07-24
2008-07-23 July 2008 2008-07-25

Data Records for Thursday, 24 July 2008

Time	Temp	Chill	HIndex	Humid	Dewpt	 Wind 	HiWind	WindDir	Rain 	Barom 
-----	----	-----	------	-----	-----	------	------	-------	-----	----- 
00:00	64.8	64.8	64.8	80	58.5	0	0	---	0.00	29.985 
00:05	64.7	64.7	64.7	80	58.4	0	0	---	0.00	29.983 
00:10	64.5	64.5	64.5	80	58.2	0	0	---	0.00	29.981 
00:15	64.5	64.5	64.5	80	58.2	0	0	---	0.00	29.981 
00:20	64.3	64.3	64.3	80	58.0	0	0	---	0.00	29.982 
00:25	64.3	64.3	64.3	80	58.0	0	0	---	0.00	29.981 
00:30	64.2	64.2	64.2	80	57.9	0	0	---	0.00	29.981 
00:35	64.0	64.0	64.0	81	58.0	0	0	---	0.00	29.982 
00:40	63.9	63.9	63.9	81	57.9	0	0	---	0.00	29.981 
00:45	63.7	63.7	63.7	81	57.8	0	0	---	0.00	29.983 
00:50	63.5	63.5	63.5	81	57.6	0	0	---	0.00	29.983 
00:55	63.4	63.4	63.4	81	57.5	0	0	---	0.00	29.983 
01:00	63.2	63.2	63.2	82	57.6	0	0	---	0.00	29.983 
01:05	63.1	63.1	63.1	82	57.5	0	0	---	0.00	29.982 
01:10	62.9	62.9	62.9	82	57.3	0	0	---	0.00	29.980 
01:15	62.7	62.7	62.7	82	57.1	0	0	---	0.00	29.981 
01:20	62.6	62.6	62.6	83	57.4	0	0	---	0.00	29.982 
01:25	62.4	62.4	62.4	83	57.2	0	0	---	0.00	29.985 
01:30	62.1	62.1	62.1	84	57.2	0	0	---	0.00	29.985 
01:35	62.0	62.0	62.0	84	57.1	0	0	---	0.00	29.984 
01:40	61.8	61.8	61.8	85	57.2	0	0	---	0.00	29.982 
01:45	61.8	61.8	61.8	85	57.2	0	0	---	0.00	29.983 
01:50	61.6	61.6	61.6	85	57.0	0	0	---	0.00	29.984 
01:55	61.3	61.3	61.3	86	57.1	0	0	---	0.00	29.984 
02:00	61.2	61.2	61.2	86	57.0	0	0	---	0.00	29.985 
02:05	61.2	61.2	61.2	87	57.3	0	0	---	0.00	29.985 
02:10	61.0	61.0	61.0	87	57.1	0	0	---	0.00	29.985 
02:15	60.9	60.9	60.9	87	57.0	0	0	---	0.00	29.986 
02:20	60.7	60.7	60.7	87	56.8	0	0	---	0.00	29.986 
02:25	60.5	60.5	60.5	88	56.9	0	0	---	0.00	29.986 
02:30	60.5	60.5	60.5	88	56.9	0	0	---	0.00	29.986 
02:35	60.4	60.4	60.4	88	56.8	0	0	---	0.00	29.986 
02:40	60.4	60.4	60.4	88	56.8	0	0	---	0.00	29.986 
02:45	60.4	60.4	60.4	88	56.8	0	0	---	0.00	29.988 
02:50	60.4	60.4	60.4	88	56.8	0	0	---	0.00	29.987 
02:55	60.4	60.4	60.4	88	56.8	0	0	---	0.00	29.986 
03:00	60.4	60.4	60.4	87	56.5	0	0	---	0.00	29.987 
03:05	60.4	60.4	60.4	87	56.5	0	0	---	0.00	29.986 
03:10	60.2	60.2	60.2	87	56.3	0	0	---	0.00	29.987 
03:15	60.2	60.2	60.2	87	56.3	0	0	---	0.00	29.988 
03:20	60.1	60.1	60.1	87	56.2	0	0	---	0.00	29.988 
03:25	59.9	59.9	59.9	87	56.0	0	0	---	0.00	29.987 
03:30	59.8	59.8	59.8	87	55.9	0	0	---	0.00	29.987 
03:35	59.6	59.6	59.6	87	55.7	0	0	---	0.00	29.987 
03:40	59.3	59.3	59.3	87	55.4	0	0	---	0.00	29.986 
03:45	59.3	59.3	59.3	88	55.7	0	0	---	0.00	29.987 
03:50	59.2	59.2	59.2	88	55.6	0	0	---	0.00	29.988 
03:55	59.2	59.2	59.2	88	55.6	0	0	---	0.00	29.989 
04:00	59.0	59.0	59.0	88	55.4	0	0	---	0.00	29.990 
04:05	59.0	59.0	59.0	88	55.4	0	0	---	0.00	29.990 
04:10	58.9	58.9	58.9	88	55.3	0	0	---	0.00	29.993 
04:15	58.9	58.9	58.9	88	55.3	0	0	---	0.00	29.991 
04:20	58.9	58.9	58.9	88	55.3	0	0	---	0.00	29.990 
04:25	58.9	58.9	58.9	88	55.3	0	0	---	0.00	29.991 
04:30	58.9	58.9	58.9	88	55.3	0	0	---	0.00	29.996 
04:35	58.9	58.9	58.9	88	55.3	0	0	---	0.00	29.994 
04:40	58.9	58.9	58.9	88	55.3	0	0	---	0.00	29.993 
04:45	58.7	58.7	58.7	88	55.2	0	0	---	0.00	29.992 
04:50	58.7	58.7	58.7	88	55.2	0	0	---	0.00	29.990 
04:55	58.6	58.6	58.6	88	55.1	0	0	---	0.00	29.990 
05:00	58.4	58.4	58.4	88	54.9	0	0	---	0.00	29.989 
05:05	58.3	58.3	58.3	88	54.8	0	0	---	0.00	29.991 
05:10	58.1	58.1	58.1	88	54.6	0	0	---	0.00	29.990 
05:15	58.0	58.0	58.0	88	54.5	0	0	---	0.00	29.990 
05:20	57.8	57.8	57.8	88	54.3	0	0	---	0.00	29.991 
05:25	57.6	57.6	57.6	89	54.4	0	0	---	0.00	29.992 
05:30	57.5	57.5	57.5	89	54.3	0	0	---	0.00	29.994 
05:35	57.3	57.3	57.3	90	54.4	0	0	---	0.00	29.995 
05:40	57.2	57.2	57.2	90	54.3	0	0	---	0.00	29.994 
05:45	57.0	57.0	57.0	90	54.1	0	0	---	0.00	29.994 
05:50	56.9	56.9	56.9	91	54.3	0	0	---	0.00	29.996 
05:55	56.9	56.9	56.9	91	54.3	0	0	---	0.00	29.999 
06:00	56.9	56.9	56.9	92	54.6	0	0	---	0.00	30.000 
06:05	57.0	57.0	57.0	92	54.7	0	0	---	0.00	30.003 
06:10	57.2	57.2	57.2	92	54.9	0	0	---	0.00	30.003 
06:15	57.5	57.5	57.5	93	55.5	0	1	315	0.00	30.005 
06:20	58.1	58.1	58.1	93	56.1	0	1	315	0.00	30.006 
06:25	58.6	58.6	58.6	92	56.3	0	0	---	0.00	30.004 
06:30	59.2	59.2	59.2	91	56.6	0	0	---	0.00	30.004 
06:35	59.8	59.8	59.8	90	56.9	0	0	---	0.00	30.005 
06:40	60.4	60.4	60.4	88	56.8	0	0	---	0.00	30.005 
06:45	61.0	61.0	61.0	86	56.8	0	0	---	0.00	30.004 
06:50	61.5	61.5	61.5	85	56.9	0	1	315	0.00	30.005 
06:55	62.1	62.1	62.1	83	56.9	0	1	315	0.00	30.003 
07:00	62.6	62.6	62.6	81	56.7	0	1	315	0.00	30.004 
07:05	62.9	62.9	62.9	79	56.3	0	2	315	0.00	30.007 
07:10	63.4	63.4	63.4	79	56.8	1	2	315	0.00	30.009 
07:15	63.7	63.7	63.7	78	56.7	0	1	315	0.00	30.014 
07:20	64.0	64.0	64.0	78	57.0	0	1	315	0.00	30.018 
07:25	64.3	64.3	64.3	78	57.3	0	1	315	0.00	30.020 
07:30	64.7	64.7	64.7	77	57.3	0	2	315	0.00	30.019 
07:35	65.0	65.0	65.0	77	57.6	0	3	315	0.00	30.019 
07:40	65.2	65.2	65.2	75	57.1	1	3	315	0.00	30.019 
07:45	65.3	65.3	65.3	75	57.2	1	3	315	0.00	30.020 
07:50	65.6	65.6	65.6	75	57.5	1	3	270	0.00	30.022 
07:55	66.1	66.1	66.1	75	57.9	1	2	270	0.00	30.023 
08:00	66.4	66.4	66.4	74	57.9	0	2	270	0.00	30.021 
08:05	66.6	66.6	66.6	73	57.7	1	2	270	0.00	30.021 
08:10	66.9	66.9	66.9	73	58.0	0	1	270	0.00	30.022 
08:15	67.4	67.4	67.4	72	58.1	0	2	270	0.00	30.020 
08:20	67.8	67.8	67.8	70	57.6	1	3	270	0.00	30.020 
08:25	67.8	67.8	67.8	69	57.2	1	3	292	0.00	30.021 
08:30	68.1	68.1	68.1	69	57.5	0	2	292	0.00	30.022 
08:35	68.4	68.4	68.4	68	57.4	1	2	292	0.00	30.023 
08:40	68.8	68.8	68.8	69	58.2	1	2	292	0.00	30.023 
08:45	69.1	69.1	69.1	69	58.5	1	3	292	0.00	30.025 
08:50	69.6	69.6	69.6	66	57.7	1	2	292	0.00	30.022 
08:55	69.9	69.9	69.9	67	58.4	1	2	292	0.00	30.020 
09:00	70.3	70.3	70.3	66	58.4	1	3	292	0.00	30.020 
09:05	70.8	70.8	70.8	65	58.4	0	1	292	0.00	30.021 
09:10	71.1	71.1	71.1	63	57.9	0	2	292	0.00	30.024 
09:15	71.3	71.3	71.3	62	57.6	0	2	292	0.00	30.024 
09:20	71.8	71.8	71.8	63	58.5	1	2	315	0.00	30.029 
09:25	72.3	72.3	72.3	61	58.1	1	3	270	0.00	30.020 
09:30	72.8	72.8	72.8	61	58.6	2	3	270	0.00	30.017 
09:35	73.2	73.2	73.2	58	57.5	1	3	270	0.00	30.020 
09:40	73.5	73.5	73.5	58	57.8	1	3	270	0.00	30.020 
09:45	73.9	73.9	73.9	59	58.7	1	3	270	0.00	30.017 
09:50	74.0	74.0	74.0	57	57.8	1	3	270	0.00	30.016 
09:55	74.2	74.2	74.2	56	57.5	1	3	292	0.00	30.016 
10:00	74.4	74.4	74.4	56	57.7	1	3	315	0.00	30.016 
10:05	74.6	74.6	74.6	57	58.3	1	3	315	0.00	30.016 
10:10	75.3	75.3	77.6	57	59.0	1	3	292	0.00	30.016 
10:15	75.4	75.4	77.7	55	58.1	2	4	270	0.00	30.016 
10:20	75.8	75.8	77.9	56	59.0	1	3	270	0.00	30.014 
10:25	76.1	76.1	78.1	54	58.2	0	2	292	0.00	30.012 
10:30	76.5	76.5	78.3	50	56.5	1	3	292	0.00	30.013 
10:35	76.8	76.8	78.5	51	57.3	0	2	315	0.00	30.014 
10:40	77.2	77.2	78.7	51	57.6	1	3	338	0.00	30.014 
10:45	77.4	77.4	78.7	47	55.6	1	3	292	0.00	30.015 
10:50	77.7	77.7	79.1	51	58.1	0	2	292	0.00	30.015 
10:55	78.1	78.1	79.3	49	57.4	0	3	315	0.00	30.014 
11:00	78.1	78.1	79.2	47	56.2	0	2	315	0.00	30.013 
11:05	78.5	78.5	79.4	46	56.0	1	5	315	0.00	30.013 
11:10	78.8	78.8	79.8	50	58.6	1	4	248	0.00	30.012 
11:15	79.0	79.0	79.7	46	56.4	0	2	248	0.00	30.012 
11:20	78.8	78.8	79.4	44	55.0	1	3	270	0.00	30.009 
11:25	79.0	79.0	79.5	43	54.6	1	3	68	0.00	30.005 
11:30	79.2	79.2	79.6	43	54.7	0	2	22	0.00	30.002 
11:35	79.6	79.6	80.0	44	55.7	0	2	22	0.00	30.001 
11:40	79.4	79.4	79.8	43	54.9	1	3	22	0.00	30.001 
11:45	78.5	78.5	79.2	44	54.7	0	1	22	0.00	30.000 
11:50	77.6	77.6	78.8	45	54.6	0	1	22	0.00	30.004 
11:55	77.9	77.9	78.7	41	52.3	0	2	22	0.00	30.001 
12:00	78.8	78.8	79.4	43	54.4	0	2	338	0.00	29.999 
12:05	79.9	79.9	79.6	37	51.3	1	3	248	0.00	30.001 
12:10	80.3	80.3	79.8	36	50.9	1	4	202	0.00	30.001 
12:15	80.7	80.7	80.3	39	53.4	1	3	202	0.00	29.999 
12:20	81.1	81.1	80.7	40	54.5	1	3	225	0.00	29.998 
12:25	80.9	80.9	80.2	36	51.4	1	3	292	0.00	29.997 
12:30	80.3	80.3	80.1	40	53.8	1	3	292	0.00	29.999 
12:35	80.5	80.5	80.1	38	52.5	0	2	0	0.00	29.998 
12:40	81.1	81.1	80.3	35	50.8	1	4	248	0.00	29.996 
12:45	81.1	81.1	80.5	38	53.1	1	2	248	0.00	29.992 
12:50	80.9	80.9	80.1	35	50.7	1	3	292	0.00	29.992 
12:55	81.1	81.1	80.2	34	50.0	1	3	292	0.00	29.992 
13:00	81.2	81.2	80.3	35	50.9	1	3	270	0.00	29.994 
13:05	80.9	80.9	80.0	33	49.1	1	4	315	0.00	29.994 
13:10	80.9	80.9	79.8	31	47.4	1	3	315	0.00	29.994 
13:15	81.2	81.2	80.3	34	50.1	1	2	292	0.00	29.996 
13:20	81.8	81.8	80.9	36	52.2	0	2	292	0.00	29.997 
13:25	81.8	81.8	80.6	33	49.9	0	1	315	0.00	29.993 
13:30	81.6	81.6	80.5	34	50.5	1	3	68	0.00	29.990 
13:35	81.2	81.2	79.9	29	45.9	1	3	315	0.00	29.992 
13:40	81.4	81.4	80.1	30	47.0	1	3	112	0.00	29.988 
13:45	81.8	81.8	80.3	29	46.4	1	2	135	0.00	29.988 
13:50	82.0	82.0	80.7	32	49.2	0	2	135	0.00	29.987 
13:55	82.2	82.2	80.6	30	47.7	0	1	135	0.00	29.986 
14:00	82.0	82.0	80.6	31	48.4	0	2	112	0.00	29.987 
14:05	81.8	81.8	80.3	30	47.3	1	3	292	0.00	29.989 
14:10	81.8	81.8	80.4	31	48.2	1	3	292	0.00	29.987 
14:15	81.4	81.4	80.1	31	47.8	1	4	270	0.00	29.989 
14:20	81.1	81.1	79.9	31	47.6	1	3	270	0.00	29.989 
14:25	81.2	81.2	80.1	32	48.5	1	4	248	0.00	29.988 
14:30	81.1	81.1	80.0	32	48.4	1	3	338	0.00	29.989 
14:35	81.2	81.2	79.9	30	46.8	2	4	68	0.00	29.987 
14:40	81.2	81.2	80.2	33	49.3	1	4	315	0.00	29.987 
14:45	81.2	81.2	80.2	33	49.3	0	2	270	0.00	29.987 
14:50	81.1	81.1	80.1	33	49.2	0	1	270	0.00	29.988 
14:55	81.1	81.1	80.0	32	48.4	0	2	270	0.00	29.988 
15:00	81.1	81.1	80.1	33	49.2	0	1	270	0.00	29.988 
15:05	81.1	81.1	80.2	34	50.0	1	3	68	0.00	29.987 
15:10	80.9	80.9	79.7	30	46.5	1	3	315	0.00	29.987 
15:15	80.7	80.7	79.7	31	47.2	0	1	315	0.00	29.987 
15:20	80.7	80.7	79.8	32	48.1	1	2	292	0.00	29.987 
15:25	80.7	80.7	79.8	33	48.9	1	2	292	0.00	29.987 
15:30	80.7	80.7	79.9	34	49.7	0	1	292	0.00	29.987 
15:35	80.5	80.5	79.8	34	49.5	0	2	292	0.00	29.987 
15:40	80.3	80.3	79.7	35	50.1	0	2	292	0.00	29.986 
15:45	80.1	80.1	79.5	34	49.2	1	2	292	0.00	29.987 
15:50	79.8	79.8	79.3	34	48.9	0	2	292	0.00	29.988 
15:55	79.6	79.6	79.4	36	50.3	1	3	292	0.00	29.989 
16:00	79.6	79.6	79.4	36	50.3	0	2	292	0.00	29.989 
16:05	79.8	79.8	79.6	38	51.9	1	3	270	0.00	29.989 
16:10	79.8	79.8	79.6	37	51.2	1	3	248	0.00	29.988 
16:15	79.8	79.8	79.7	39	52.6	1	3	292	0.00	29.986 
16:20	79.6	79.6	79.6	39	52.4	1	3	248	0.00	29.987 
16:25	79.4	79.4	79.3	37	50.8	1	3	270	0.00	29.988 
16:30	79.4	79.4	79.5	40	52.9	1	2	270	0.00	29.989 
16:35	79.4	79.4	79.4	38	51.6	1	4	248	0.00	29.987 
16:40	79.2	79.2	79.2	37	50.7	1	4	248	0.00	29.984 
16:45	79.2	79.2	79.3	39	52.1	1	3	248	0.00	29.984 
16:50	79.4	79.4	79.4	38	51.6	0	2	248	0.00	29.981 
16:55	79.8	79.8	79.8	40	53.3	0	3	270	0.00	29.980 
17:00	80.1	80.1	79.9	39	52.9	0	2	270	0.00	29.977 
17:05	80.1	80.1	79.8	38	52.2	1	4	270	0.00	29.982 
17:10	80.1	80.1	79.8	37	51.5	2	4	248	0.00	29.980 
17:15	79.8	79.8	79.5	36	50.4	1	4	270	0.00	29.980 
17:20	79.6	79.6	79.6	39	52.4	1	3	270	0.00	29.981 
17:25	79.4	79.4	79.4	38	51.6	1	3	248	0.00	29.978 
17:30	79.2	79.2	79.2	37	50.7	1	3	248	0.00	29.977 
17:35	79.2	79.2	79.2	37	50.7	0	2	248	0.00	29.975 
17:40	78.8	78.8	79.0	37	50.3	0	2	248	0.00	29.975 
17:45	78.5	78.5	78.8	37	50.0	1	3	248	0.00	29.975 
17:50	78.5	78.5	78.8	37	50.0	1	2	248	0.00	29.975 
17:55	78.3	78.3	78.7	37	49.9	0	3	248	0.00	29.976 
18:00	78.1	78.1	78.7	39	51.1	1	3	248	0.00	29.976 
18:05	78.5	78.5	78.8	37	50.0	0	2	270	0.00	29.971 
18:10	78.3	78.3	78.6	36	49.1	1	2	270	0.00	29.970 
18:15	77.9	77.9	78.5	37	49.5	0	1	270	0.00	29.972 
18:20	77.6	77.6	78.4	38	50.0	0	2	270	0.00	29.972 
18:25	77.6	77.6	78.5	40	51.3	0	1	270	0.00	29.972 
18:30	77.6	77.6	78.5	39	50.7	0	2	270	0.00	29.972 
18:35	77.6	77.6	78.5	39	50.7	0	1	270	0.00	29.971 
18:40	77.9	77.9	78.6	39	50.9	0	1	270	0.00	29.971 
18:45	77.9	77.9	78.6	38	50.2	0	1	270	0.00	29.971 
18:50	77.9	77.9	78.6	38	50.2	0	1	270	0.00	29.971 
18:55	77.9	77.9	78.6	39	50.9	0	1	270	0.00	29.970 
19:00	77.9	77.9	78.6	39	50.9	0	1	270	0.00	29.969 
19:05	77.9	77.9	78.7	40	51.6	0	1	270	0.00	29.966 
19:10	77.9	77.9	78.5	37	49.5	0	2	270	0.00	29.967 
19:15	77.7	77.7	78.5	39	50.7	0	2	270	0.00	29.968 
19:20	77.4	77.4	78.3	38	49.8	0	2	270	0.00	29.969 
19:25	77.0	77.0	78.2	39	50.1	0	1	270	0.00	29.971 
19:30	76.7	76.7	78.1	40	50.5	0	0	---	0.00	29.971 
19:35	76.3	76.3	77.9	40	50.2	0	0	---	0.00	29.973 
19:40	75.8	75.8	77.7	40	49.7	0	1	270	0.00	29.974 
19:45	75.4	75.4	77.6	40	49.4	0	1	270	0.00	29.975 
19:50	75.1	75.1	77.5	39	48.4	0	1	270	0.00	29.974 
19:55	74.9	74.9	74.9	40	48.9	0	1	270	0.00	29.974 
20:00	74.6	74.6	74.6	41	49.3	0	0	---	0.00	29.973 
20:05	74.0	74.0	74.0	42	49.4	0	1	270	0.00	29.971 
20:10	73.7	73.7	73.7	43	49.8	0	0	---	0.00	29.972 
20:15	73.2	73.2	73.2	44	50.0	0	0	---	0.00	29.973 
20:20	72.8	72.8	72.8	45	50.2	0	0	---	0.00	29.975 
20:25	72.5	72.5	72.5	45	49.9	0	0	---	0.00	29.980 
20:30	72.0	72.0	72.0	46	50.1	0	0	---	0.00	29.981 
20:35	71.6	71.6	71.6	47	50.3	0	0	---	0.00	29.980 
20:40	71.1	71.1	71.1	48	50.4	0	0	---	0.00	29.983 
20:45	70.8	70.8	70.8	48	50.1	0	0	---	0.00	29.986 
20:50	70.4	70.4	70.4	50	50.9	0	0	---	0.00	29.987 
20:55	70.1	70.1	70.1	50	50.6	0	0	---	0.00	29.987 
21:00	69.6	69.6	69.6	51	50.7	0	0	---	0.00	29.990 
21:05	69.1	69.1	69.1	53	51.2	0	0	---	0.00	29.991 
21:10	68.8	68.8	68.8	53	51.0	0	0	---	0.00	29.994 
21:15	68.4	68.4	68.4	54	51.1	0	0	---	0.00	29.998 
21:20	68.1	68.1	68.1	55	51.3	0	0	---	0.00	29.999 
21:25	67.9	67.9	67.9	57	52.1	0	0	---	0.00	30.000 
21:30	67.6	67.6	67.6	57	51.8	0	0	---	0.00	29.999 
21:35	67.6	67.6	67.6	58	52.3	0	1	270	0.00	29.999 
21:40	67.9	67.9	67.9	57	52.1	0	1	270	0.00	30.000 
21:45	68.3	68.3	68.3	57	52.5	0	0	---	0.00	30.000 
21:50	68.1	68.1	68.1	57	52.3	0	0	---	0.00	30.000 
21:55	67.9	67.9	67.9	58	52.6	0	0	---	0.00	30.001 
22:00	67.8	67.8	67.8	58	52.5	0	0	---	0.00	30.001 
22:05	67.4	67.4	67.4	57	51.6	0	0	---	0.00	29.996 
22:10	67.3	67.3	67.3	58	52.0	0	0	---	0.00	29.997 
22:15	67.3	67.3	67.3	58	52.0	0	0	---	0.00	29.996 
22:20	67.1	67.1	67.1	58	51.8	0	0	---	0.00	29.995 
22:25	66.8	66.8	66.8	58	51.5	0	0	---	0.00	29.997 
22:30	66.6	66.6	66.6	59	51.8	0	0	---	0.00	29.998 
22:35	66.3	66.3	66.3	60	52.0	0	0	---	0.00	29.999 
22:40	66.1	66.1	66.1	60	51.8	0	0	---	0.00	29.999 
22:45	65.8	65.8	65.8	61	52.0	0	0	---	0.00	30.000 
22:50	65.6	65.6	65.6	62	52.2	0	0	---	0.00	30.001 
22:55	65.3	65.3	65.3	63	52.4	0	0	---	0.00	30.000 
23:00	65.2	65.2	65.2	64	52.7	0	0	---	0.00	30.001 
23:05	65.0	65.0	65.0	64	52.5	0	0	---	0.00	30.000 
23:10	64.7	64.7	64.7	64	52.2	0	0	---	0.00	29.999 
23:15	64.5	64.5	64.5	64	52.0	0	0	---	0.00	29.999 
23:20	64.2	64.2	64.2	66	52.6	0	0	---	0.00	30.000 
23:25	64.0	64.0	64.0	67	52.8	0	0	---	0.00	30.000 
23:30	63.7	63.7	63.7	67	52.5	0	0	---	0.00	30.000 
23:35	63.4	63.4	63.4	69	53.0	0	0	---	0.00	30.000 
23:40	63.1	63.1	63.1	69	52.8	0	0	---	0.00	30.000 
23:45	62.9	62.9	62.9	70	53.0	0	0	---	0.00	30.000 
23:50	62.4	62.4	62.4	70	52.5	0	0	---	0.00	30.000 
23:55	62.3	62.3	62.3	71	52.8	0	0	---	0.00	30.002 

CoCoRaHS
IN-AL-39
A2 Web Hosting
Creative Commons License
GoDaddy
Look for:

loaded 2017-12-12 01:34:25 • last modified 2010-11-18 10:43:29
Privacy PolicyDisclaimer
• wx.awcolley.com is powered by PmWiki v.2002016 •
• all content (unless otherwise noted) © 2017 A W Colley